Time;durP1;ratioP1;P1;durP2;ratioP2;P2;SDS_P1;SDS_P2;PMS_P1;PMS_P2;Temp;Humidity;BMP_temperature;BMP_pressure;BME280_temperature;BME280_humidity;BME280_pressure;Samples;Min_cycle;Max_cycle;Signal;HPM_P1;HPM_P2
2021/11/23 00:01:07;;;;;;;7.68;5.45;;;7.80;99.90;;;;;;4946286;29;20026;-82
2021/11/23 00:03:33;;;;;;;8.77;5.60;;;7.70;99.90;;;;;;4946647;29;20034;-82
2021/11/23 00:06:00;;;;;;;8.63;5.97;;;7.70;99.90;;;;;;4945632;29;20035;-82
2021/11/23 00:08:26;;;;;;;9.00;5.88;;;7.70;99.90;;;;;;4945430;29;20024;-82
2021/11/23 00:10:51;;;;;;;8.73;5.45;;;7.60;99.90;;;;;;4946871;29;20402;-82
2021/11/23 00:13:18;;;;;;;8.38;5.05;;;7.60;99.90;;;;;;4946399;29;20094;-82
2021/11/23 00:15:45;;;;;;;8.00;5.85;;;7.50;99.90;;;;;;4945925;29;20031;-82
2021/11/23 00:18:13;;;;;;;9.88;5.72;;;7.50;99.90;;;;;;4946141;29;20019;-82
2021/11/23 00:20:42;;;;;;;9.70;5.82;;;7.40;99.90;;;;;;4945534;29;20034;-83
2021/11/23 00:23:09;;;;;;;10.18;6.25;;;7.20;99.90;;;;;;4946063;29;20024;-82
2021/11/23 00:25:35;;;;;;;8.93;6.20;;;7.20;99.90;;;;;;4946017;29;20323;-82
2021/11/23 00:28:01;;;;;;;9.13;6.15;;;7.10;99.90;;;;;;4946285;29;20088;-82
2021/11/23 00:30:29;;;;;;;8.80;6.72;;;7.10;99.90;;;;;;4946204;29;20095;-84
2021/11/23 00:32:56;;;;;;;10.02;6.75;;;7.00;99.90;;;;;;4944430;29;20032;-83
2021/11/23 00:35:22;;;;;;;9.40;6.85;;;6.90;99.90;;;;;;4945821;29;20100;-84
2021/11/23 00:37:49;;;;;;;9.50;6.85;;;6.90;99.90;;;;;;4944833;29;20042;-84
2021/11/23 00:40:15;;;;;;;10.98;7.40;;;6.80;99.90;;;;;;4945898;29;20111;-82
2021/11/23 00:42:42;;;;;;;11.93;6.88;;;6.70;99.90;;;;;;4945736;29;20058;-82
2021/11/23 00:45:08;;;;;;;10.10;7.00;;;6.70;99.90;;;;;;4944801;29;20292;-82
2021/11/23 00:47:34;;;;;;;11.48;7.60;;;6.70;99.90;;;;;;4945414;29;20020;-81
2021/11/23 00:50:00;;;;;;;11.00;7.45;;;6.60;99.90;;;;;;4945569;29;20049;-82
2021/11/23 00:52:26;;;;;;;11.20;8.20;;;6.60;99.90;;;;;;4945567;29;20023;-82
2021/11/23 00:54:51;;;;;;;12.95;8.00;;;6.60;99.90;;;;;;4945095;29;20035;-82
2021/11/23 00:57:17;;;;;;;9.88;7.78;;;6.40;99.90;;;;;;4945513;29;20107;-81
2021/11/23 00:59:43;;;;;;;10.50;7.82;;;6.40;99.90;;;;;;4945822;29;20032;-82
2021/11/23 01:02:09;;;;;;;11.50;7.97;;;6.50;99.90;;;;;;4945386;29;20028;-82
2021/11/23 01:04:36;;;;;;;13.52;8.98;;;6.40;99.90;;;;;;4945430;29;20019;-82
2021/11/23 01:07:02;;;;;;;12.23;8.20;;;6.40;99.90;;;;;;4945085;29;20024;-81
2021/11/23 01:09:28;;;;;;;14.75;9.35;;;6.30;99.90;;;;;;4945090;29;20054;-83
2021/11/23 01:11:55;;;;;;;14.52;8.55;;;6.30;99.90;;;;;;4945990;29;20311;-84
2021/11/23 01:14:21;;;;;;;12.48;8.43;;;6.30;99.90;;;;;;4945632;29;20251;-82
2021/11/23 01:16:49;;;;;;;13.27;9.43;;;6.20;99.90;;;;;;4945295;29;20051;-81
2021/11/23 01:19:16;;;;;;;14.30;9.52;;;6.20;99.90;;;;;;4945380;29;20176;-82
2021/11/23 01:21:43;;;;;;;15.05;9.77;;;6.20;99.90;;;;;;4945194;29;20024;-82
2021/11/23 01:24:09;;;;;;;16.30;10.00;;;6.20;99.90;;;;;;4945250;29;20156;-81
2021/11/23 01:26:38;;;;;;;12.85;9.25;;;6.20;99.90;;;;;;4945369;29;20032;-82
2021/11/23 01:29:04;;;;;;;15.13;10.30;;;6.20;99.90;;;;;;4944916;29;20018;-81
2021/11/23 01:31:30;;;;;;;14.07;9.75;;;6.20;99.90;;;;;;4945371;29;20039;-81
2021/11/23 01:33:56;;;;;;;16.30;10.98;;;6.10;99.90;;;;;;4945150;29;20023;-83
2021/11/23 01:36:23;;;;;;;15.60;10.52;;;6.10;99.90;;;;;;4944819;29;20324;-81
2021/11/23 01:38:48;;;;;;;15.95;10.25;;;6.10;99.90;;;;;;4945234;29;20099;-81
2021/11/23 01:41:14;;;;;;;15.85;11.00;;;6.10;99.90;;;;;;4944491;29;20291;-82
2021/11/23 01:43:40;;;;;;;17.65;11.25;;;6.00;99.90;;;;;;4944588;29;20039;-82
2021/11/23 01:46:06;;;;;;;15.45;11.20;;;5.90;99.90;;;;;;4944533;29;20051;-82
2021/11/23 01:48:33;;;;;;;16.45;11.15;;;5.90;99.90;;;;;;4944168;29;20098;-81
2021/11/23 01:50:59;;;;;;;15.75;11.38;;;5.90;99.90;;;;;;4944520;29;20319;-82
2021/11/23 01:53:25;;;;;;;15.75;11.35;;;5.90;99.90;;;;;;4944361;29;20286;-82
2021/11/23 01:55:51;;;;;;;15.32;10.43;;;5.90;99.90;;;;;;4944798;29;20071;-82
2021/11/23 01:58:17;;;;;;;17.52;11.23;;;5.90;99.90;;;;;;4944508;29;20020;-84
2021/11/23 02:00:45;;;;;;;15.25;11.15;;;5.80;99.90;;;;;;4944375;29;20313;-84
2021/11/23 02:03:11;;;;;;;15.68;10.80;;;5.80;99.90;;;;;;4944359;29;20027;-82
2021/11/23 02:05:38;;;;;;;15.45;10.65;;;5.80;99.90;;;;;;4944427;29;20031;-82
2021/11/23 02:08:04;;;;;;;16.05;10.73;;;5.70;99.90;;;;;;4944024;29;20093;-81
2021/11/23 02:10:29;;;;;;;15.40;10.43;;;5.70;99.90;;;;;;4943937;29;20136;-84
2021/11/23 02:12:56;;;;;;;15.63;11.07;;;5.60;99.90;;;;;;4944051;29;20148;-84
2021/11/23 02:15:22;;;;;;;14.02;10.20;;;5.70;99.90;;;;;;4944049;29;20032;-82
2021/11/23 02:17:48;;;;;;;15.40;10.30;;;5.70;99.90;;;;;;4944483;29;20032;-82
2021/11/23 02:20:18;;;;;;;17.05;11.05;;;5.60;99.90;;;;;;4944569;29;20058;-82
2021/11/23 02:22:45;;;;;;;14.65;10.30;;;5.60;99.90;;;;;;4944010;29;20403;-84
2021/11/23 02:25:11;;;;;;;15.05;10.60;;;5.60;99.90;;;;;;4944189;29;20019;-84
2021/11/23 02:27:38;;;;;;;17.48;11.13;;;5.60;99.90;;;;;;4943529;29;20031;-83
2021/11/23 02:30:06;;;;;;;17.02;11.02;;;5.60;99.90;;;;;;4943911;29;20026;-84
2021/11/23 02:32:43;;;;;;;15.68;10.57;;;5.60;99.90;;;;;;4942293;29;20027;-84
2021/11/23 02:35:11;;;;;;;17.35;11.40;;;5.60;99.90;;;;;;4943857;29;20028;-83
2021/11/23 02:37:45;;;;;;;15.30;10.82;;;5.50;99.90;;;;;;4944276;29;20026;-82
2021/11/23 02:40:11;;;;;;;18.92;11.70;;;5.50;99.90;;;;;;4943766;29;20095;-82
2021/11/23 02:42:37;;;;;;;17.50;11.32;;;5.50;99.90;;;;;;4943586;29;20032;-82
2021/11/23 02:45:04;;;;;;;16.27;11.13;;;5.50;99.90;;;;;;4943999;29;20039;-82
2021/11/23 02:47:37;;;;;;;21.48;12.02;;;5.50;99.90;;;;;;4943068;29;20047;-82
2021/11/23 02:50:05;;;;;;;17.13;11.05;;;5.40;99.90;;;;;;4943818;29;20083;-82
2021/11/23 02:52:31;;;;;;;18.42;11.45;;;5.40;99.90;;;;;;4944913;29;20032;-82
2021/11/23 02:54:59;;;;;;;17.25;12.00;;;5.50;99.90;;;;;;4947794;29;20041;-82
2021/11/23 02:57:29;;;;;;;17.80;12.15;;;5.40;99.90;;;;;;4946407;29;20047;-83
2021/11/23 02:59:55;;;;;;;18.27;11.77;;;5.40;99.90;;;;;;4946012;29;20027;-83
2021/11/23 03:02:21;;;;;;;14.98;10.52;;;5.30;99.90;;;;;;4945871;29;20135;-83
2021/11/23 03:04:54;;;;;;;19.70;11.95;;;5.30;99.90;;;;;;4946324;29;20227;-84
2021/11/23 03:07:21;;;;;;;17.77;10.83;;;5.30;99.90;;;;;;4946099;29;20034;-84
2021/11/23 03:09:47;;;;;;;18.05;11.82;;;5.30;99.90;;;;;;4946466;29;20579;-83
2021/11/23 03:12:17;;;;;;;20.20;11.27;;;5.20;99.90;;;;;;4945889;29;20823;-84
2021/11/23 03:14:43;;;;;;;19.23;12.43;;;5.20;99.90;;;;;;4945783;29;20078;-81
2021/11/23 03:17:10;;;;;;;18.98;12.55;;;5.20;99.90;;;;;;4946165;29;20074;-81
2021/11/23 03:19:36;;;;;;;19.00;12.13;;;5.30;99.90;;;;;;4946295;29;20231;-82
2021/11/23 03:22:02;;;;;;;18.30;11.57;;;5.20;99.90;;;;;;4945916;29;20020;-81
2021/11/23 03:24:29;;;;;;;23.25;12.82;;;5.20;99.90;;;;;;4945954;29;20039;-82
2021/11/23 03:26:55;;;;;;;19.42;12.48;;;5.20;99.90;;;;;;4945986;29;20035;-81
2021/11/23 03:29:22;;;;;;;18.92;12.35;;;5.20;99.90;;;;;;4946112;29;20271;-82
2021/11/23 03:31:47;;;;;;;20.67;13.02;;;5.20;99.90;;;;;;4945971;29;20039;-83
2021/11/23 03:34:14;;;;;;;20.92;14.40;;;5.10;99.90;;;;;;4945654;29;20294;-84
2021/11/23 03:36:41;;;;;;;18.70;11.93;;;5.10;99.90;;;;;;4946072;29;20020;-82
2021/11/23 03:39:07;;;;;;;21.20;13.48;;;5.00;99.90;;;;;;4945861;29;20032;-82
2021/11/23 03:41:33;;;;;;;20.70;13.13;;;5.00;99.90;;;;;;4945896;29;20045;-82
2021/11/23 03:43:59;;;;;;;21.58;13.40;;;5.00;99.90;;;;;;4946175;29;20347;-82
2021/11/23 03:46:25;;;;;;;22.58;13.88;;;5.00;99.90;;;;;;4946056;29;20016;-82
2021/11/23 03:48:52;;;;;;;21.33;13.35;;;5.00;99.90;;;;;;4945964;29;20032;-84
2021/11/23 03:51:21;;;;;;;18.77;13.25;;;5.00;99.90;;;;;;4946017;29;20307;-82
2021/11/23 03:53:46;;;;;;;21.30;13.18;;;5.00;99.90;;;;;;4945441;29;20059;-83
2021/11/23 03:56:13;;;;;;;22.38;13.48;;;5.00;99.90;;;;;;4905838;29;1185340;-83
2021/11/23 03:58:43;;;;;;;20.67;13.48;;;5.00;99.90;;;;;;4946725;29;20036;-83
2021/11/23 04:01:09;;;;;;;24.33;14.65;;;4.90;99.90;;;;;;4946163;29;20099;-82
2021/11/23 04:03:35;;;;;;;21.17;13.45;;;4.90;99.90;;;;;;4945786;29;20020;-82
2021/11/23 04:06:02;;;;;;;19.92;13.05;;;4.90;99.90;;;;;;4944547;29;20031;-82
2021/11/23 04:08:28;;;;;;;21.50;14.05;;;4.80;99.90;;;;;;4945740;29;20024;-82
2021/11/23 04:10:54;;;;;;;19.35;13.40;;;4.90;99.90;;;;;;4946215;29;20054;-82
2021/11/23 04:13:20;;;;;;;25.90;14.52;;;4.90;99.90;;;;;;4946441;29;20215;-82
2021/11/23 04:15:47;;;;;;;21.40;13.60;;;4.90;99.90;;;;;;4946704;29;20032;-83
2021/11/23 04:18:13;;;;;;;22.35;12.25;;;4.90;99.90;;;;;;4947023;29;20243;-83
2021/11/23 04:20:38;;;;;;;22.13;13.52;;;4.80;99.90;;;;;;4946069;29;20035;-83
2021/11/23 04:23:05;;;;;;;23.88;14.63;;;4.70;99.90;;;;;;4945387;29;20327;-83
2021/11/23 04:25:31;;;;;;;22.83;14.60;;;4.70;99.90;;;;;;4946239;29;20087;-83
2021/11/23 04:27:57;;;;;;;21.50;13.82;;;4.70;99.90;;;;;;4946271;29;20023;-83
2021/11/23 04:30:23;;;;;;;22.67;14.23;;;4.60;99.90;;;;;;4946086;29;20039;-83
2021/11/23 04:32:50;;;;;;;20.55;13.40;;;4.60;99.90;;;;;;4945779;29;20032;-82
2021/11/23 04:35:18;;;;;;;21.88;14.60;;;4.60;99.90;;;;;;4945762;29;20327;-83
2021/11/23 04:37:44;;;;;;;23.75;14.70;;;4.60;99.90;;;;;;4945197;29;20044;-83
2021/11/23 04:40:13;;;;;;;24.45;14.15;;;4.60;99.90;;;;;;4945413;29;20055;-82
2021/11/23 04:42:39;;;;;;;25.77;15.10;;;4.60;99.90;;;;;;4944995;29;20024;-83
2021/11/23 04:45:08;;;;;;;23.50;15.32;;;4.50;99.90;;;;;;4945259;29;20035;-83
2021/11/23 04:47:34;;;;;;;21.73;14.57;;;4.50;99.90;;;;;;4945481;29;20038;-83
2021/11/23 04:50:00;;;;;;;25.02;15.82;;;4.50;99.90;;;;;;4945519;29;20111;-83
2021/11/23 04:52:26;;;;;;;26.38;15.85;;;4.50;99.90;;;;;;4945337;29;20477;-83
2021/11/23 04:54:52;;;;;;;23.95;15.13;;;4.60;99.90;;;;;;4945248;29;20043;-83
2021/11/23 04:57:18;;;;;;;22.85;14.25;;;4.60;99.90;;;;;;4944242;29;20058;-83
2021/11/23 04:59:44;;;;;;;25.13;15.60;;;4.50;99.90;;;;;;4945307;29;20248;-82
2021/11/23 05:02:10;;;;;;;24.85;15.95;;;4.50;99.90;;;;;;4945043;29;20019;-83
2021/11/23 05:04:36;;;;;;;24.35;15.32;;;4.50;99.90;;;;;;4945823;29;20098;-83
2021/11/23 05:07:02;;;;;;;23.73;15.15;;;4.50;99.90;;;;;;4944916;29;20393;-82
2021/11/23 05:09:28;;;;;;;25.83;15.35;;;4.50;99.90;;;;;;4945695;29;20038;-82
2021/11/23 05:11:53;;;;;;;24.75;15.18;;;4.50;99.90;;;;;;4945485;29;20012;-83
2021/11/23 05:14:20;;;;;;;28.52;16.50;;;4.40;99.90;;;;;;4944874;29;20039;-82
2021/11/23 05:16:46;;;;;;;23.13;15.35;;;4.40;99.90;;;;;;4944679;29;20088;-83
2021/11/23 05:19:11;;;;;;;24.02;15.13;;;4.40;99.90;;;;;;4923634;29;20067;-83
2021/11/23 05:21:37;;;;;;;24.00;15.10;;;4.30;99.90;;;;;;4915420;29;20075;-83
2021/11/23 05:24:05;;;;;;;24.90;15.82;;;4.30;99.90;;;;;;4932653;29;20404;-83
2021/11/23 05:26:30;;;;;;;23.45;14.05;;;4.40;99.90;;;;;;4933456;29;20019;-83
2021/11/23 05:28:56;;;;;;;23.55;13.98;;;4.40;99.90;;;;;;4933310;29;20028;-83
2021/11/23 05:31:22;;;;;;;25.20;14.88;;;4.40;99.90;;;;;;4933387;29;20016;-83
2021/11/23 05:33:48;;;;;;;25.95;15.70;;;4.30;99.90;;;;;;4933154;29;20055;-83
2021/11/23 05:36:17;;;;;;;24.63;15.48;;;4.30;99.90;;;;;;4933453;29;20519;-82
2021/11/23 05:38:43;;;;;;;24.73;14.88;;;4.30;99.90;;;;;;4926176;29;20028;-83
2021/11/23 05:41:09;;;;;;;28.15;16.30;;;4.40;99.90;;;;;;4925675;29;20075;-82
2021/11/23 05:43:34;;;;;;;27.45;16.20;;;4.40;99.90;;;;;;4925069;29;20032;-82
2021/11/23 05:46:00;;;;;;;23.73;15.02;;;4.30;99.90;;;;;;4931322;29;20102;-84
2021/11/23 05:48:26;;;;;;;25.42;15.75;;;4.20;99.90;;;;;;4930197;29;20505;-81
2021/11/23 05:50:52;;;;;;;26.27;15.95;;;4.30;99.90;;;;;;4933537;29;20506;-81
2021/11/23 05:53:17;;;;;;;27.45;15.23;;;4.30;99.90;;;;;;4933422;29;20028;-81
2021/11/23 05:55:43;;;;;;;25.63;15.45;;;4.30;99.90;;;;;;4933378;29;20102;-82
2021/11/23 05:58:09;;;;;;;24.63;14.98;;;4.30;99.90;;;;;;4933579;29;20171;-81
2021/11/23 06:00:36;;;;;;;25.20;14.90;;;4.20;99.90;;;;;;4933539;29;20098;-81
2021/11/23 06:03:02;;;;;;;27.42;15.48;;;4.20;99.90;;;;;;4933703;29;20024;-82
2021/11/23 06:05:28;;;;;;;24.45;14.52;;;4.10;99.90;;;;;;4933490;29;20043;-82
2021/11/23 06:07:54;;;;;;;28.17;16.85;;;4.20;99.90;;;;;;4933228;29;20026;-82
2021/11/23 06:10:20;;;;;;;23.02;14.95;;;4.20;99.90;;;;;;4934041;29;20400;-84
2021/11/23 06:12:47;;;;;;;25.60;15.23;;;4.10;99.90;;;;;;4934859;29;20547;-86
2021/11/23 06:15:13;;;;;;;25.58;15.98;;;4.20;99.90;;;;;;4935362;29;20051;-85
2021/11/23 06:17:40;;;;;;;25.27;15.75;;;4.10;99.90;;;;;;4932478;29;20019;-85
2021/11/23 06:20:07;;;;;;;23.55;14.70;;;4.10;99.90;;;;;;4933798;29;20027;-86
2021/11/23 06:22:33;;;;;;;23.00;14.15;;;4.10;99.90;;;;;;4932206;29;20115;-86
2021/11/23 06:25:00;;;;;;;24.17;15.80;;;4.10;99.90;;;;;;4933125;29;20055;-85
2021/11/23 06:27:25;;;;;;;24.08;15.32;;;4.10;99.90;;;;;;4933058;29;20028;-86
2021/11/23 06:29:52;;;;;;;24.33;15.38;;;4.00;99.90;;;;;;4934678;29;20114;-87
2021/11/23 06:32:19;;;;;;;26.33;15.40;;;4.00;99.90;;;;;;4932015;29;20024;-85
2021/11/23 06:34:45;;;;;;;24.55;15.80;;;4.00;99.90;;;;;;4933319;29;20091;-86
2021/11/23 06:37:12;;;;;;;28.08;15.68;;;4.00;99.90;;;;;;4933691;29;20032;-87
2021/11/23 06:39:38;;;;;;;25.10;15.77;;;4.00;99.90;;;;;;4932213;29;20107;-85
2021/11/23 06:42:04;;;;;;;25.60;15.90;;;4.00;99.90;;;;;;4933422;29;20106;-85
2021/11/23 06:44:29;;;;;;;27.02;17.00;;;4.00;99.90;;;;;;4933262;29;20500;-86
2021/11/23 06:46:55;;;;;;;24.95;16.13;;;4.00;99.90;;;;;;4933258;29;20492;-86
2021/11/23 06:49:20;;;;;;;26.20;15.38;;;3.90;99.90;;;;;;4933403;29;20028;-85
2021/11/23 06:51:46;;;;;;;27.13;16.13;;;3.90;99.90;;;;;;4932256;29;20031;-86
2021/11/23 06:54:12;;;;;;;28.42;16.92;;;3.90;99.90;;;;;;4933384;29;20040;-86
2021/11/23 06:56:38;;;;;;;27.48;16.50;;;4.00;99.90;;;;;;4933203;29;20111;-87
2021/11/23 06:59:04;;;;;;;26.50;16.13;;;4.00;99.90;;;;;;4932348;29;20023;-86
2021/11/23 07:01:30;;;;;;;28.58;16.88;;;4.10;99.90;;;;;;4933170;29;20024;-86
2021/11/23 07:03:57;;;;;;;27.98;16.88;;;4.00;99.90;;;;;;4933502;29;20033;-86
2021/11/23 07:06:23;;;;;;;25.50;16.38;;;4.00;99.90;;;;;;4931675;29;20027;-86
2021/11/23 07:08:49;;;;;;;31.02;17.92;;;4.00;99.90;;;;;;4931445;29;20174;-86
2021/11/23 07:11:14;;;;;;;28.35;17.10;;;4.00;99.90;;;;;;4931546;29;20570;-86
2021/11/23 07:13:40;;;;;;;27.85;17.17;;;3.90;99.90;;;;;;4931344;29;20081;-86
2021/11/23 07:16:08;;;;;;;27.00;17.10;;;3.90;99.90;;;;;;4933132;29;20028;-87
2021/11/23 07:18:33;;;;;;;25.48;16.17;;;3.90;99.90;;;;;;4931426;29;20027;-89
2021/11/23 07:20:59;;;;;;;28.17;17.67;;;3.80;99.90;;;;;;4931393;29;20528;-86
2021/11/23 07:23:25;;;;;;;26.60;16.63;;;3.90;99.90;;;;;;4931288;29;20492;-86
2021/11/23 07:25:51;;;;;;;27.10;17.50;;;3.80;99.90;;;;;;4932702;29;20280;-86
2021/11/23 07:28:17;;;;;;;35.78;18.10;;;3.90;99.90;;;;;;4931704;29;20287;-86
2021/11/23 07:30:43;;;;;;;27.48;17.08;;;3.80;99.90;;;;;;4933181;29;20043;-86
2021/11/23 07:33:09;;;;;;;27.52;16.85;;;3.90;99.90;;;;;;4933344;29;20115;-86
2021/11/23 07:35:34;;;;;;;24.77;15.63;;;3.90;99.90;;;;;;4933191;29;20130;-86
2021/11/23 07:38:00;;;;;;;28.38;16.27;;;3.90;99.90;;;;;;4933663;29;20707;-86
2021/11/23 07:40:26;;;;;;;25.95;15.32;;;3.90;99.90;;;;;;4935222;29;20114;-85
2021/11/23 07:42:52;;;;;;;30.08;17.48;;;3.80;99.90;;;;;;4935100;29;20028;-89
2021/11/23 07:45:18;;;;;;;28.90;17.50;;;3.80;99.90;;;;;;4935291;29;20086;-87
2021/11/23 07:47:44;;;;;;;29.23;16.83;;;3.80;99.90;;;;;;4936822;29;20354;-87
2021/11/23 07:50:10;;;;;;;27.95;16.70;;;3.80;99.90;;;;;;4935197;29;20040;-85
2021/11/23 07:52:36;;;;;;;29.63;16.20;;;3.80;99.90;;;;;;4935022;29;20499;-87
2021/11/23 07:55:03;;;;;;;26.63;16.77;;;3.90;99.90;;;;;;4934944;29;20062;-87
2021/11/23 07:57:29;;;;;;;27.55;16.00;;;4.00;99.90;;;;;;4935192;29;20052;-86
2021/11/23 07:59:54;;;;;;;28.45;16.83;;;4.00;99.90;;;;;;4934800;29;20032;-86
2021/11/23 08:02:20;;;;;;;36.15;16.30;;;4.00;99.90;;;;;;4935202;29;20024;-86
2021/11/23 08:04:46;;;;;;;33.40;16.95;;;4.00;99.90;;;;;;4935040;29;20036;-86
2021/11/23 08:07:11;;;;;;;29.88;16.02;;;4.10;99.90;;;;;;4935043;29;20485;-86
2021/11/23 08:09:37;;;;;;;30.40;17.10;;;4.20;99.90;;;;;;4934796;29;20039;-86
2021/11/23 08:12:03;;;;;;;25.63;15.32;;;4.20;99.90;;;;;;4935028;29;20028;-87
2021/11/23 08:14:29;;;;;;;29.08;17.33;;;4.30;99.90;;;;;;4934673;29;20059;-86
2021/11/23 08:16:56;;;;;;;25.35;15.90;;;4.40;99.90;;;;;;4934618;29;20039;-86
2021/11/23 08:19:22;;;;;;;25.20;15.30;;;4.40;99.90;;;;;;4934530;29;20031;-86
2021/11/23 08:21:49;;;;;;;25.35;14.82;;;4.50;99.90;;;;;;4938057;29;20016;-87
2021/11/23 08:24:14;;;;;;;24.80;15.77;;;4.50;99.90;;;;;;4936194;29;20027;-87
2021/11/23 08:26:40;;;;;;;25.77;16.00;;;4.50;99.90;;;;;;4934503;29;20035;-85
2021/11/23 08:29:06;;;;;;;25.60;16.15;;;4.60;99.90;;;;;;4934263;29;20063;-86
2021/11/23 08:31:32;;;;;;;26.75;16.40;;;4.60;99.90;;;;;;4935847;29;20024;-87
2021/11/23 08:34:03;;;;;;;24.73;14.80;;;4.70;99.90;;;;;;4934184;29;20053;-87
2021/11/23 08:36:30;;;;;;;24.25;14.65;;;4.70;99.90;;;;;;4935642;29;20508;-87
2021/11/23 08:38:56;;;;;;;26.15;15.75;;;4.60;99.90;;;;;;4933992;29;20028;-86
2021/11/23 08:41:22;;;;;;;25.67;15.63;;;4.70;99.90;;;;;;4934176;29;20023;-86
2021/11/23 08:43:47;;;;;;;26.67;14.88;;;4.80;99.90;;;;;;4934898;29;20027;-89
2021/11/23 08:46:13;;;;;;;23.10;14.40;;;4.80;99.90;;;;;;4933745;29;20036;-89
2021/11/23 08:48:39;;;;;;;26.55;15.45;;;4.90;99.90;;;;;;4933307;29;20496;-86
2021/11/23 08:51:07;;;;;;;23.15;13.90;;;5.00;99.90;;;;;;4933463;29;20488;-87
2021/11/23 08:53:32;;;;;;;23.42;13.77;;;5.00;99.90;;;;;;4933413;29;20153;-87
2021/11/23 08:55:58;;;;;;;23.48;14.45;;;4.90;99.90;;;;;;4934915;29;20086;-87
2021/11/23 08:58:24;;;;;;;24.30;14.70;;;4.90;99.90;;;;;;4934718;29;20102;-87
2021/11/23 09:00:49;;;;;;;24.38;14.68;;;5.00;99.90;;;;;;4934534;29;20461;-87
2021/11/23 09:03:15;;;;;;;22.15;13.85;;;5.00;99.90;;;;;;4934719;29;20023;-87
2021/11/23 09:05:44;;;;;;;24.55;14.25;;;5.10;99.90;;;;;;4933176;29;20031;-87
2021/11/23 09:08:10;;;;;;;19.67;13.18;;;5.10;99.90;;;;;;4932904;29;20036;-87
2021/11/23 09:10:38;;;;;;;21.67;13.93;;;5.20;99.90;;;;;;4934591;29;20078;-87
2021/11/23 09:13:05;;;;;;;27.95;14.45;;;5.20;99.90;;;;;;4933144;29;20035;-87
2021/11/23 09:15:31;;;;;;;23.00;13.27;;;5.20;99.90;;;;;;4932950;29;20055;-87
2021/11/23 09:18:02;;;;;;;23.02;14.00;;;5.30;99.90;;;;;;4934377;29;20027;-86
2021/11/23 09:20:34;;;;;;;23.02;14.18;;;5.30;99.90;;;;;;4933180;29;20031;-86
2021/11/23 09:23:11;;;;;;;18.55;12.35;;;5.40;99.90;;;;;;4932987;29;20030;-90
2021/11/23 09:25:39;;;;;;;18.60;13.07;;;5.60;99.90;;;;;;4932400;29;20043;-88
2021/11/23 09:28:06;;;;;;;20.70;12.88;;;5.60;99.90;;;;;;4933599;29;20066;-88
2021/11/23 09:30:37;;;;;;;18.80;11.73;;;5.70;99.90;;;;;;4934734;29;20051;-87
2021/11/23 09:33:04;;;;;;;23.48;12.88;;;5.60;99.90;;;;;;4933764;29;20489;-87
2021/11/23 09:35:30;;;;;;;18.15;11.55;;;5.70;99.90;;;;;;4933408;29;20484;-88
2021/11/23 09:37:56;;;;;;;21.30;12.13;;;5.80;99.90;;;;;;4933449;29;20023;-88
2021/11/23 09:40:22;;;;;;;20.08;12.18;;;5.80;99.90;;;;;;4934629;29;20051;-86
2021/11/23 09:42:49;;;;;;;18.13;11.68;;;5.80;99.90;;;;;;4933911;29;20116;-87
2021/11/23 09:45:16;;;;;;;17.95;11.95;;;5.80;99.90;;;;;;4932373;29;20110;-86
2021/11/23 09:47:42;;;;;;;18.45;11.35;;;5.90;99.90;;;;;;4933939;29;20127;-86
2021/11/23 09:50:08;;;;;;;16.73;11.52;;;5.90;99.90;;;;;;4932448;29;20468;-87
2021/11/23 09:52:35;;;;;;;19.00;11.38;;;6.00;99.90;;;;;;4932373;29;20035;-87
2021/11/23 09:55:02;;;;;;;16.90;11.50;;;6.00;99.90;;;;;;4932252;29;20087;-87
2021/11/23 09:57:28;;;;;;;17.38;11.10;;;6.00;99.90;;;;;;4933532;29;20040;-87
2021/11/23 09:59:53;;;;;;;19.70;11.20;;;6.10;99.90;;;;;;4932523;29;20071;-87
2021/11/23 10:02:28;;;;;;;18.98;11.00;;;6.20;99.90;;;;;;4933066;29;20090;-87
2021/11/23 10:05:05;;;;;;;17.13;11.15;;;6.20;99.90;;;;;;4933216;29;20537;-87
2021/11/23 10:07:42;;;;;;;16.00;10.73;;;6.30;99.90;;;;;;4933240;29;20016;-87
2021/11/23 10:10:14;;;;;;;16.30;10.43;;;6.40;99.90;;;;;;4935780;29;20026;-87
2021/11/23 10:12:53;;;;;;;16.10;10.25;;;6.40;99.90;;;;;;4935080;29;20108;-87
2021/11/23 10:15:35;;;;;;;13.93;9.93;;;6.50;99.90;;;;;;4934406;29;20380;-87
2021/11/23 10:18:12;;;;;;;16.17;10.60;;;6.50;99.90;;;;;;4934065;29;20485;-87
2021/11/23 10:20:41;;;;;;;14.75;10.40;;;6.50;99.90;;;;;;4933802;29;20057;-87
2021/11/23 10:23:15;;;;;;;17.30;10.82;;;6.60;99.90;;;;;;4933889;29;20251;-87
2021/11/23 10:25:43;;;;;;;15.23;10.15;;;6.70;99.90;;;;;;4933665;29;20373;-87
2021/11/23 10:28:09;;;;;;;14.77;10.23;;;6.70;99.90;;;;;;4933474;29;20024;-87
2021/11/23 10:30:39;;;;;;;15.73;10.02;;;6.70;99.90;;;;;;4931712;29;20031;-86
2021/11/23 10:33:06;;;;;;;14.55;9.63;;;6.70;99.90;;;;;;4933005;29;20079;-87
2021/11/23 10:35:32;;;;;;;13.70;9.48;;;6.70;99.90;;;;;;4932775;29;20036;-87
2021/11/23 10:38:00;;;;;;;16.27;9.85;;;6.80;99.90;;;;;;4932860;29;20057;-87
2021/11/23 10:40:28;;;;;;;15.30;9.85;;;6.80;99.90;;;;;;4931479;29;20420;-87
2021/11/23 10:43:04;;;;;;;13.52;9.23;;;6.80;99.90;;;;;;4932889;29;20026;-87
2021/11/23 10:45:39;;;;;;;15.32;8.80;;;6.90;99.90;;;;;;4932857;29;20500;-88
2021/11/23 10:48:06;;;;;;;14.00;9.95;;;7.10;99.90;;;;;;4931560;29;20036;-87
2021/11/23 10:50:34;;;;;;;17.02;9.50;;;7.20;99.90;;;;;;4932923;29;20030;-87
2021/11/23 10:53:08;;;;;;;14.30;9.63;;;7.40;99.90;;;;;;4932716;29;20167;-87
2021/11/23 10:55:37;;;;;;;15.95;10.38;;;7.40;99.90;;;;;;4931138;29;20114;-87
2021/11/23 10:58:06;;;;;;;14.40;9.70;;;7.50;99.90;;;;;;4933209;29;20378;-87
2021/11/23 11:00:36;;;;;;;12.93;8.88;;;7.50;99.90;;;;;;4932716;29;20032;-88
2021/11/23 11:03:02;;;;;;;14.73;9.20;;;7.50;99.90;;;;;;4932586;29;20062;-87
2021/11/23 11:05:34;;;;;;;13.20;9.05;;;7.50;99.90;;;;;;4932785;29;20028;-87
2021/11/23 11:08:01;;;;;;;16.02;8.98;;;7.50;99.90;;;;;;4932577;29;20385;-87
2021/11/23 11:10:29;;;;;;;12.27;8.60;;;7.50;99.90;;;;;;4930930;29;20031;-87
2021/11/23 11:12:55;;;;;;;13.90;9.00;;;7.50;99.90;;;;;;4934701;29;20028;-88
2021/11/23 11:15:48;;;;;;;11.32;8.40;;;7.60;99.90;;;;;;4958993;29;20046;-88
2021/11/23 11:18:16;;;;;;;14.77;8.98;;;7.60;99.90;;;;;;4959790;29;20063;-88
2021/11/23 11:20:52;;;;;;;13.80;8.70;;;7.60;99.90;;;;;;4959945;28;20058;-88
2021/11/23 11:23:20;;;;;;;12.10;8.18;;;7.60;99.90;;;;;;4959898;29;20040;-88
2021/11/23 11:26:08;;;;;;;11.88;8.35;;;7.60;99.90;;;;;;4950048;29;20027;-88
2021/11/23 11:28:39;;;;;;;11.90;8.82;;;7.70;99.90;;;;;;4937693;29;20122;-88
2021/11/23 11:31:08;;;;;;;12.05;8.13;;;7.80;99.90;;;;;;4931941;29;20030;-87
2021/11/23 11:33:36;;;;;;;14.57;9.32;;;7.80;99.90;;;;;;4925856;29;20024;-87
2021/11/23 11:36:02;;;;;;;15.82;9.15;;;7.80;99.90;;;;;;4922663;29;20103;-87
2021/11/23 11:38:28;;;;;;;10.93;8.65;;;7.80;99.90;;;;;;4929125;29;20111;-88
2021/11/23 11:41:03;;;;;;;12.55;8.60;;;7.90;99.90;;;;;;4942177;29;20110;-88
2021/11/23 11:43:33;;;;;;;13.45;8.65;;;8.00;99.90;;;;;;4953001;28;20066;-87
2021/11/23 11:46:00;;;;;;;14.50;9.13;;;8.10;99.90;;;;;;4955844;28;20036;-89
2021/11/23 11:48:37;;;;;;;12.38;7.97;;;8.20;99.90;;;;;;4953368;29;20051;-88
2021/11/23 11:51:08;;;;;;;12.13;9.13;;;8.30;99.90;;;;;;4941925;28;20024;-87
2021/11/23 11:53:41;;;;;;;12.88;9.20;;;8.30;99.90;;;;;;4937653;29;20029;-88
2021/11/23 11:56:08;;;;;;;15.50;9.70;;;8.30;99.90;;;;;;4935431;29;20063;-87
2021/11/23 11:58:59;;;;;;;15.73;9.23;;;8.30;99.90;;;;;;4924732;29;20641;-87
2021/11/23 12:01:36;;;;;;;11.85;8.60;;;8.30;99.90;;;;;;4916752;29;20531;-88
2021/11/23 12:04:14;;;;;;;19.83;11.52;;;8.40;99.90;;;;;;4915487;29;20378;-87
2021/11/23 12:07:14;;;;;;;14.82;9.38;;;8.40;99.90;;;;;;4916552;29;20149;-88
2021/11/23 12:09:45;;;;;;;20.30;11.95;;;8.50;99.90;;;;;;4893941;29;20132;-88
2021/11/23 12:12:11;;;;;;;35.47;15.23;;;8.70;99.90;;;;;;4915297;29;20063;-87
2021/11/23 12:14:52;;;;;;;13.93;8.82;;;8.60;99.90;;;;;;4924584;29;20499;-88
2021/11/23 12:17:58;;;;;;;12.02;7.70;;;8.70;99.90;;;;;;4917802;29;20030;-88
2021/11/23 12:20:38;;;;;;;11.75;8.30;;;8.70;99.90;;;;;;4917299;29;20071;-88
2021/11/23 12:23:34;;;;;;;10.52;7.57;;;8.80;99.90;;;;;;4915749;29;20095;-88
2021/11/23 12:26:06;;;;;;;8.77;6.70;;;8.90;99.90;;;;;;4917063;29;20039;-87
2021/11/23 12:28:32;;;;;;;18.92;12.63;;;8.90;99.90;;;;;;4915051;29;20028;-88
2021/11/23 12:31:04;;;;;;;13.15;8.30;;;8.90;99.90;;;;;;4914714;29;20032;-88
2021/11/23 12:33:30;;;;;;;12.75;8.20;;;8.90;99.90;;;;;;4915854;29;20024;-88
2021/11/23 12:35:58;;;;;;;14.45;8.25;;;8.80;99.90;;;;;;4914701;29;20095;-88
2021/11/23 12:38:30;;;;;;;9.65;6.95;;;8.80;99.90;;;;;;4914744;29;20075;-88
2021/11/23 12:41:11;;;;;;;11.05;7.28;;;8.80;99.90;;;;;;4914617;29;20056;-88
2021/11/23 12:43:37;;;;;;;10.82;7.78;;;8.90;99.90;;;;;;4916316;29;20188;-88